»·PEaware :: N515SL KHQM-KSFF

N515SL :: KHQM-KSFF

FLIGHT INFORMATION

Flight Status: Arrived
Operator: Privately registered:
United States
More flights under this callsign
Pilot: Doug L. (8712)
Aircraft: CESSNA 421 GOLDEN EAGLE
(C421)
More flights by this aircraft type
Origin: KHQM Bowerman
United States
Destination: KSFF Felts
United States
More flights between these airports :: More routes between these airports
Route: EPH ZOOMR1
File this flight plan on PilotEdge
Remarks:
Altitude:
(Current/Filed)
25,000ft
Speed:
(Current/Filed)
236kts
Departed: 04-Jun-18 05:30 PM
Arrived: 04-Jun-18 06:38 PM
Distance/Time
Traveled:
272nm/1:08
Distance/Time
To Go:
Arrived

Flight Plot

Page will automatically refresh every two minutes.

Flight plan parsing failed; only flown route is shown


Map Options




Map Legend


Flown Route
Filed Route
Departure Airport
Arrival Airport
Navaid (VOR, NDB)
Fix

Horizontal Profiles

Position Reports

Time Latitude Longitude Heading Altitude Ground
Speed
04-Jun-18 17:29 46.975322 -123.907113 79 1078ft 127kts
04-Jun-18 17:30 46.979964 -123.854804 85 2723ft 129kts
04-Jun-18 17:31 46.985254 -123.801210 76 4439ft 135kts
04-Jun-18 17:32 46.991933 -123.746909 80 6240ft 139kts
04-Jun-18 17:33 46.999079 -123.681758 81 8325ft 140kts
04-Jun-18 17:34 47.004254 -123.633837 81 9752ft 146kts
04-Jun-18 17:35 47.010772 -123.573279 80 11535ft 155kts
04-Jun-18 17:36 47.017622 -123.509271 80 13347ft 162kts
04-Jun-18 17:37 47.024766 -123.442109 80 15118ft 171kts
04-Jun-18 17:38 47.032199 -123.371846 80 16855ft 178kts
04-Jun-18 17:39 47.039961 -123.298024 80 18561ft 186kts
04-Jun-18 17:40 47.047954 -123.221464 81 20264ft 194kts
04-Jun-18 17:41 47.056250 -123.141463 82 21876ft 204kts
04-Jun-18 17:42 47.064817 -123.058265 82 23526ft 209kts
04-Jun-18 17:43 47.073649 -122.971824 83 25042ft 218kts
04-Jun-18 17:44 47.083920 -122.870096 83 25140ft 279kts
04-Jun-18 17:45 47.095364 -122.756440 82 25127ft 281kts
04-Jun-18 17:46 47.106673 -122.642689 83 25126ft 282kts
04-Jun-18 17:47 47.117918 -122.528293 83 25125ft 282kts
04-Jun-18 17:48 47.129011 -122.414233 83 25124ft 282kts
04-Jun-18 17:49 47.139987 -122.300135 83 25125ft 282kts
04-Jun-18 17:50 47.150875 -122.185722 83 25124ft 282kts
04-Jun-18 17:51 47.161632 -122.071468 83 25123ft 283kts
04-Jun-18 17:52 47.172300 -121.956901 84 25120ft 283kts
04-Jun-18 17:53 47.182895 -121.841812 84 25119ft 283kts
04-Jun-18 17:54 47.192954 -121.731287 84 25119ft 283kts
04-Jun-18 17:55 47.202908 -121.620728 84 25119ft 283kts
04-Jun-18 17:56 47.212795 -121.509693 84 25121ft 283kts
04-Jun-18 17:57 47.222934 -121.394516 84 25123ft 283kts
04-Jun-18 17:58 47.232957 -121.279269 84 25123ft 284kts
04-Jun-18 17:59 47.242883 -121.163774 84 25119ft 285kts
04-Jun-18 18:00 47.252709 -121.048053 85 25108ft 285kts
04-Jun-18 18:01 47.262431 -120.932103 85 25090ft 284kts
04-Jun-18 18:02 47.272002 -120.816547 85 25074ft 284kts
04-Jun-18 18:03 47.281492 -120.700554 85 25059ft 284kts
04-Jun-18 18:04 47.290837 -120.584783 85 25047ft 285kts
04-Jun-18 18:05 47.300083 -120.468770 85 25027ft 286kts
04-Jun-18 18:06 47.309246 -120.352279 85 25015ft 285kts
04-Jun-18 18:07 47.318253 -120.236225 85 25008ft 285kts
04-Jun-18 18:08 47.327143 -120.120139 86 25005ft 285kts
04-Jun-18 18:09 47.335944 -120.003609 86 25001ft 285kts
04-Jun-18 18:10 47.344738 -119.885433 86 24658ft 295kts
04-Jun-18 18:11 47.353651 -119.764061 86 23929ft 300kts
04-Jun-18 18:12 47.362540 -119.641234 86 22910ft 303kts
04-Jun-18 18:13 47.371324 -119.517963 86 21790ft 302kts
04-Jun-18 18:14 47.379579 -119.397182 88 20745ft 290kts
04-Jun-18 18:15 47.384787 -119.279214 90 20011ft 285kts
04-Jun-18 18:16 47.390035 -119.163547 90 18986ft 280kts
04-Jun-18 18:17 47.395158 -119.049108 90 18168ft 277kts
04-Jun-18 18:18 47.400105 -118.936231 90 17198ft 274kts
04-Jun-18 18:19 47.404865 -118.825241 90 16254ft 269kts
04-Jun-18 18:20 47.409423 -118.716196 90 15627ft 263kts
04-Jun-18 18:21 47.413817 -118.608708 89 14932ft 259kts
04-Jun-18 18:22 47.418048 -118.502626 89 14334ft 258kts
04-Jun-18 18:23 47.422121 -118.397982 88 13300ft 252kts
04-Jun-18 18:24 47.428046 -118.296244 73 12268ft 247kts
04-Jun-18 18:25 47.448118 -118.200305 73 11488ft 242kts
04-Jun-18 18:26 47.467654 -118.105553 73 10490ft 238kts
04-Jun-18 18:27 47.486486 -118.013807 73 9996ft 222kts
04-Jun-18 18:28 47.505348 -117.924881 66 9112ft 234kts
04-Jun-18 18:29 47.531720 -117.836653 66 7860ft 231kts
04-Jun-18 18:30 47.557318 -117.750391 66 7029ft 226kts
04-Jun-18 18:31 47.582372 -117.665492 66 6015ft 218kts
04-Jun-18 18:32 47.605405 -117.588659 62 5977ft 200kts
04-Jun-18 18:33 47.632975 -117.514030 61 4989ft 203kts
04-Jun-18 18:34 47.659295 -117.440289 61 4144ft 197kts
04-Jun-18 18:35 47.683667 -117.369770 61 3479ft 180kts
04-Jun-18 18:36 47.704285 -117.317103 74 3039ft 111kts
04-Jun-18 18:37 47.689310 -117.310884 234 2060ft 81kts
04-Jun-18 18:38 47.681011 -117.326037 142 1957ft 6kts
04-Jun-18 18:39 47.680416 -117.322809 68 1957ft 12kts

Navigation Log

Ident Type
Flight plan parsing failed, navigation log unavailable